createdAt,value
2023-04-16T00:00:57.096Z,100278.48
2023-04-16T00:03:33.710Z,100281.13
2023-04-16T00:06:02.182Z,100282.69
2023-04-16T00:08:30.530Z,100278.66
2023-04-16T00:10:58.781Z,100282.02
2023-04-16T00:13:27.989Z,100284.47
2023-04-16T00:15:56.243Z,100284.46
2023-04-16T00:18:24.683Z,100284.26
2023-04-16T00:20:53.648Z,100287.55
2023-04-16T00:23:21.953Z,100290.84
2023-04-16T00:25:50.329Z,100291.86
2023-04-16T00:28:18.606Z,100294.66
2023-04-16T00:30:46.890Z,100299.04
2023-04-16T00:33:15.992Z,100302.91
2023-04-16T00:35:48.290Z,100301.01
2023-04-16T00:38:16.772Z,100301.54
2023-04-16T00:40:45.088Z,100299.29
2023-04-16T00:43:22.377Z,100305.55
2023-04-16T00:45:51.025Z,100298.36
2023-04-16T00:48:20.807Z,100299.44
2023-04-16T00:50:49.423Z,100299.96
2023-04-16T00:53:17.890Z,100295.25
2023-04-16T00:55:46.301Z,100299.44
2023-04-16T00:58:15.289Z,100302.95
2023-04-16T01:00:43.588Z,100302.59
2023-04-16T01:03:11.934Z,100299.98
2023-04-16T01:05:40.966Z,100304.16
2023-04-16T01:08:20.598Z,100305.55
2023-04-16T01:10:48.839Z,100306.42
2023-04-16T01:13:17.097Z,100308.16
2023-04-16T01:15:45.538Z,100309.39
2023-04-16T01:18:18.206Z,100308.14
2023-04-16T01:20:47.535Z,100308.14
2023-04-16T01:23:16.561Z,100311.64
2023-04-16T01:25:46.044Z,100311.12
2023-04-16T01:28:14.625Z,100318.08
2023-04-16T01:30:42.867Z,100315.80
2023-04-16T01:33:12.600Z,100315.44
2023-04-16T01:35:41.382Z,100316.50
2023-04-16T01:38:10.480Z,100315.46
2023-04-16T01:40:38.869Z,100314.09
2023-04-16T01:43:07.166Z,100314.44
2023-04-16T01:45:35.754Z,100307.27
2023-04-16T01:48:04.441Z,100308.32
2023-04-16T01:50:33.526Z,100311.80
2023-04-16T01:53:05.199Z,100309.86
2023-04-16T01:55:34.595Z,100306.84
2023-04-16T01:58:02.820Z,100306.49
2023-04-16T02:00:31.251Z,100307.38
2023-04-16T02:03:00.059Z,100307.02
2023-04-16T02:05:28.651Z,100307.73
2023-04-16T02:07:56.870Z,100310.70
2023-04-16T02:10:25.120Z,100310.55
2023-04-16T02:12:53.364Z,100314.05
2023-04-16T02:15:21.632Z,100312.48
2023-04-16T02:17:54.106Z,100307.09
2023-04-16T02:20:22.501Z,100307.80
2023-04-16T02:22:50.836Z,100305.71
2023-04-16T02:25:19.019Z,100307.45
2023-04-16T02:27:47.199Z,100308.12
2023-04-16T02:30:15.554Z,100306.70
2023-04-16T02:32:43.812Z,100306.52
2023-04-16T02:35:12.184Z,100307.91
2023-04-16T02:37:41.122Z,100309.46
2023-04-16T02:40:10.075Z,100312.75
2023-04-16T02:42:38.339Z,100313.44
2023-04-16T02:45:07.230Z,100313.07
2023-04-16T02:47:35.403Z,100313.23
2023-04-16T02:50:04.007Z,100317.21
2023-04-16T02:52:33.084Z,100319.98
2023-04-16T02:55:01.975Z,100316.30
2023-04-16T02:57:30.402Z,100317.71
2023-04-16T02:59:58.750Z,100317.00
2023-04-16T03:02:27.657Z,100321.36
2023-04-16T03:04:56.120Z,100320.99
2023-04-16T03:07:24.750Z,100317.88
2023-04-16T03:09:53.349Z,100319.27
2023-04-16T03:12:21.568Z,100320.52
2023-04-16T03:14:52.126Z,100325.24
2023-04-16T03:17:20.462Z,100325.23
2023-04-16T03:19:50.916Z,100330.81
2023-04-16T03:22:19.250Z,100330.63
2023-04-16T03:24:47.533Z,100336.39
2023-04-16T03:27:15.699Z,100333.77
2023-04-16T03:29:43.964Z,100332.69
2023-04-16T03:32:12.899Z,100331.61
2023-04-16T03:34:41.384Z,100337.36
2023-04-16T03:37:12.150Z,100335.59
2023-04-16T03:39:40.682Z,100334.54
2023-04-16T03:42:09.001Z,100336.61
2023-04-16T03:44:37.330Z,100340.79
2023-04-16T03:47:05.644Z,100338.52
2023-04-16T03:49:33.815Z,100335.23
2023-04-16T03:52:02.101Z,100339.42
2023-04-16T03:54:30.557Z,100341.53
2023-04-16T03:56:58.844Z,100344.50
2023-04-16T03:59:27.098Z,100343.44
2023-04-16T04:01:55.509Z,100346.73
2023-04-16T04:04:23.917Z,100344.80
2023-04-16T04:06:52.207Z,100346.55
2023-04-16T04:09:20.606Z,100348.09
2023-04-16T04:11:49.450Z,100354.33
2023-04-16T04:14:17.726Z,100356.85
2023-04-16T04:16:46.140Z,100358.70
2023-04-16T04:19:14.536Z,100359.47
2023-04-16T04:21:42.711Z,100364.94
2023-04-16T04:24:11.007Z,100370.13
2023-04-16T04:26:39.223Z,100376.87
2023-04-16T04:29:07.547Z,100379.60
2023-04-16T04:31:36.092Z,100378.83
2023-04-16T04:34:04.480Z,100381.79
2023-04-16T04:36:32.658Z,100384.40
2023-04-16T04:39:01.279Z,100385.13
2023-04-16T04:41:29.618Z,100385.14
2023-04-16T04:43:57.812Z,100387.21
2023-04-16T04:46:26.071Z,100392.27
2023-04-16T04:48:54.333Z,100392.43
2023-04-16T04:51:22.683Z,100394.00
2023-04-16T04:53:50.879Z,100394.69
2023-04-16T04:56:19.216Z,100394.69
2023-04-16T04:58:47.449Z,100398.35
2023-04-16T05:01:15.796Z,100399.57
2023-04-16T05:03:45.118Z,100396.99
2023-04-16T05:06:13.426Z,100404.73
2023-04-16T05:08:41.574Z,100408.45
2023-04-16T05:11:09.946Z,100409.00
2023-04-16T05:13:38.277Z,100414.63
2023-04-16T05:16:07.012Z,100416.60
2023-04-16T05:18:35.228Z,100417.87
2023-04-16T05:21:04.008Z,100421.59
2023-04-16T05:23:32.192Z,100425.30
2023-04-16T05:26:00.512Z,100422.19
2023-04-16T05:28:28.734Z,100424.29
2023-04-16T05:30:57.006Z,100425.73
2023-04-16T05:33:25.454Z,100427.64
2023-04-16T05:35:53.645Z,100431.12
2023-04-16T05:38:21.880Z,100434.11
2023-04-16T05:40:50.840Z,100434.16
2023-04-16T05:43:18.997Z,100435.10
2023-04-16T05:45:47.174Z,100436.02
2023-04-16T05:48:15.501Z,100439.58
2023-04-16T05:50:43.841Z,100435.42
2023-04-16T05:53:14.225Z,100434.02
2023-04-16T05:55:42.604Z,100435.77
2023-04-16T05:58:10.896Z,100436.64
2023-04-16T06:00:39.565Z,100438.20
2023-04-16T06:03:07.950Z,100443.42
2023-04-16T06:05:36.530Z,100445.36
2023-04-16T06:08:04.794Z,100442.40
2023-04-16T06:10:33.084Z,100441.70
2023-04-16T06:13:01.325Z,100443.27
2023-04-16T06:15:29.701Z,100445.17
2023-04-16T06:18:00.779Z,100451.78
2023-04-16T06:20:29.343Z,100454.94
2023-04-16T06:22:57.978Z,100454.09
2023-04-16T06:25:26.183Z,100453.42
2023-04-16T06:27:54.360Z,100452.73
2023-04-16T06:30:22.716Z,100455.88
2023-04-16T06:32:51.229Z,100460.20
2023-04-16T06:35:20.425Z,100461.53
2023-04-16T06:37:48.935Z,100464.98
2023-04-16T06:40:17.160Z,100467.23
2023-04-16T06:42:45.759Z,100464.63
2023-04-16T06:45:14.221Z,100465.98
2023-04-16T06:47:42.532Z,100469.48
2023-04-16T06:50:11.230Z,100471.61
2023-04-16T06:52:39.781Z,100471.46
2023-04-16T06:55:10.046Z,100475.48
2023-04-16T06:57:38.470Z,100476.73
2023-04-16T07:00:07.400Z,100476.08
2023-04-16T07:02:36.048Z,100476.13
2023-04-16T07:05:04.823Z,100477.55
2023-04-16T07:07:33.213Z,100485.98
2023-04-16T07:10:01.586Z,100486.31
2023-04-16T07:12:29.801Z,100484.35
2023-04-16T07:14:58.154Z,100488.88
2023-04-16T07:17:26.436Z,100492.52
2023-04-16T07:19:54.639Z,100498.66
2023-04-16T07:22:22.960Z,100501.10
2023-04-16T07:24:51.154Z,100499.85
2023-04-16T07:27:19.957Z,100501.94
2023-04-16T07:29:50.446Z,100497.58
2023-04-16T07:32:18.914Z,100497.40
2023-04-16T07:34:47.396Z,100501.89
2023-04-16T07:37:15.678Z,100501.69
2023-04-16T07:39:43.898Z,100498.88
2023-04-16T07:42:12.091Z,100504.66
2023-04-16T07:44:40.587Z,100505.41
2023-04-16T07:47:09.144Z,100506.83
2023-04-16T07:49:37.479Z,100506.87
2023-04-16T07:52:06.219Z,100511.92
2023-04-16T07:54:34.475Z,100513.16
2023-04-16T07:57:02.915Z,100515.66
2023-04-16T07:59:31.403Z,100517.33
2023-04-16T08:01:59.744Z,100517.86
2023-04-16T08:04:28.397Z,100514.11
2023-04-16T08:06:57.065Z,100521.59
2023-04-16T08:09:28.631Z,100522.27
2023-04-16T08:11:57.081Z,100522.38
2023-04-16T08:14:25.323Z,100525.66
2023-04-16T08:16:53.652Z,100531.05
2023-04-16T08:19:21.944Z,100529.86
2023-04-16T08:21:50.224Z,100532.35
2023-04-16T08:24:18.526Z,100537.46
2023-04-16T08:26:46.868Z,100535.89
2023-04-16T08:29:15.216Z,100537.27
2023-04-16T08:31:43.934Z,100544.88
2023-04-16T08:34:12.588Z,100546.36
2023-04-16T08:36:41.298Z,100549.98
2023-04-16T08:39:10.091Z,100552.00
2023-04-16T08:41:43.160Z,100553.73
2023-04-16T08:44:23.865Z,100556.30
2023-04-16T08:47:02.967Z,100555.36
2023-04-16T08:49:38.977Z,100559.31
2023-04-16T08:52:13.803Z,100559.95
2023-04-16T08:54:58.567Z,100562.27
2023-04-16T08:57:31.051Z,100562.66
2023-04-16T09:00:01.243Z,100566.56
2023-04-16T09:02:31.639Z,100567.08
2023-04-16T09:09:34.666Z,100570.62
2023-04-16T09:12:08.057Z,100573.05
2023-04-16T09:18:06.335Z,100573.73
2023-04-16T09:20:35.024Z,100576.01
2023-04-16T09:23:03.424Z,100576.72
2023-04-16T09:25:35.476Z,100582.37
2023-04-16T09:28:03.934Z,100586.61
2023-04-16T09:30:40.965Z,100589.27
2023-04-16T09:33:23.276Z,100587.59
2023-04-16T09:35:53.419Z,100592.25
2023-04-16T09:38:22.731Z,100592.16
2023-04-16T09:41:19.112Z,100597.80
2023-04-16T09:43:58.587Z,100589.73
2023-04-16T09:46:36.634Z,100601.50
2023-04-16T09:49:14.959Z,100604.16
2023-04-16T09:51:47.292Z,100604.48
2023-04-16T09:54:16.916Z,100608.10
2023-04-16T09:56:47.071Z,100608.46
2023-04-16T09:59:23.208Z,100612.23
2023-04-16T10:01:53.695Z,100615.70
2023-04-16T10:04:27.867Z,100619.14
2023-04-16T10:07:06.781Z,100626.02
2023-04-16T10:09:38.720Z,100626.44
2023-04-16T10:12:07.825Z,100632.02
2023-04-16T10:14:36.229Z,100626.27
2023-04-16T10:17:06.355Z,100625.26
2023-04-16T10:19:35.618Z,100633.98
2023-04-16T10:22:04.516Z,100635.19
2023-04-16T10:24:50.740Z,100636.20
2023-04-16T10:27:20.708Z,100636.18
2023-04-16T10:29:50.337Z,100639.32
2023-04-16T10:32:22.918Z,100634.98
2023-04-16T10:34:51.482Z,100638.83
2023-04-16T10:41:06.684Z,100642.48
2023-04-16T10:43:41.463Z,100644.79
2023-04-16T10:46:18.890Z,100648.00
2023-04-16T10:48:50.182Z,100653.14
2023-04-16T10:51:29.601Z,100650.82
2023-04-16T10:54:03.192Z,100651.48
2023-04-16T10:56:35.885Z,100650.17
2023-04-16T10:59:10.532Z,100652.69
2023-04-16T11:01:46.868Z,100651.84
2023-04-16T11:04:21.910Z,100651.64
2023-04-16T11:07:03.404Z,100652.65
2023-04-16T11:09:50.538Z,100654.44
2023-04-16T11:12:38.605Z,100658.56
2023-04-16T11:15:08.533Z,100659.70
2023-04-16T11:17:38.404Z,100655.92
2023-04-16T11:20:18.987Z,100654.05
2023-04-16T11:22:49.794Z,100655.63
2023-04-16T11:25:26.435Z,100653.16
2023-04-16T11:27:55.009Z,100661.39
2023-04-16T11:30:31.860Z,100658.07
2023-04-16T11:33:03.424Z,100662.86
2023-04-16T11:35:32.512Z,100664.36
2023-04-16T11:38:00.899Z,100665.33
2023-04-16T11:40:33.015Z,100669.63
2023-04-16T11:43:15.535Z,100666.55
2023-04-16T11:46:26.824Z,100663.27
2023-04-16T11:48:56.337Z,100665.40
2023-04-16T11:51:24.840Z,100670.38
2023-04-16T11:53:54.595Z,100669.73
2023-04-16T11:56:30.964Z,100674.98
2023-04-16T11:59:19.232Z,100672.32
2023-04-16T12:01:51.573Z,100678.70
2023-04-16T12:04:22.571Z,100680.94
2023-04-16T12:07:10.055Z,100677.35
2023-04-16T12:09:41.082Z,100682.19
2023-04-16T12:12:31.697Z,100676.23
2023-04-16T12:15:04.544Z,100679.25
2023-04-16T12:17:36.149Z,100678.10
2023-04-16T12:20:10.737Z,100675.55
2023-04-16T12:22:41.231Z,100671.10
2023-04-16T12:25:16.092Z,100677.48
2023-04-16T12:27:50.721Z,100674.58
2023-04-16T12:30:26.505Z,100679.84
2023-04-16T12:33:17.744Z,100678.61
2023-04-16T12:35:46.584Z,100680.17
2023-04-16T12:38:15.884Z,100681.77
2023-04-16T12:40:45.877Z,100680.05
2023-04-16T12:43:14.648Z,100676.57
2023-04-16T12:45:43.952Z,100674.98
2023-04-16T12:48:12.573Z,100677.21
2023-04-16T12:50:44.739Z,100675.77
2023-04-16T12:53:13.441Z,100679.58
2023-04-16T12:55:42.057Z,100678.84
2023-04-16T12:58:12.446Z,100684.77
2023-04-16T13:00:41.132Z,100684.93
2023-04-16T13:03:09.608Z,100692.06
2023-04-16T13:05:38.101Z,100693.56
2023-04-16T13:08:06.843Z,100689.65
2023-04-16T13:10:35.993Z,100690.61
2023-04-16T13:13:04.333Z,100691.82
2023-04-16T13:15:32.762Z,100697.66
2023-04-16T13:18:01.115Z,100697.69
2023-04-16T13:20:33.455Z,100700.65
2023-04-16T13:23:02.051Z,100698.03
2023-04-16T13:25:31.352Z,100697.73
2023-04-16T13:27:59.593Z,100696.38
2023-04-16T13:30:29.728Z,100698.52
2023-04-16T13:32:58.326Z,100695.21
2023-04-16T13:35:27.425Z,100695.58
2023-04-16T13:37:56.041Z,100694.20
2023-04-16T13:40:24.446Z,100696.84
2023-04-16T13:42:52.706Z,100695.44
2023-04-16T13:45:21.040Z,100698.61
2023-04-16T13:47:49.472Z,100699.70
2023-04-16T13:50:17.840Z,100696.04
2023-04-16T13:52:46.128Z,100700.09
2023-04-16T13:55:14.575Z,100699.04
2023-04-16T13:57:43.120Z,100701.14
2023-04-16T14:00:13.372Z,100699.90
2023-04-16T14:02:46.332Z,100703.25
2023-04-16T14:05:15.716Z,100704.13
2023-04-16T14:07:44.119Z,100702.58
2023-04-16T14:10:12.651Z,100702.78
2023-04-16T14:12:41.436Z,100703.65
2023-04-16T14:15:10.514Z,100705.92
2023-04-16T14:17:38.906Z,100706.81
2023-04-16T14:20:07.737Z,100703.66
2023-04-16T14:22:36.065Z,100706.98
2023-04-16T14:25:04.707Z,100708.23
2023-04-16T14:27:34.347Z,100706.29
2023-04-16T14:30:02.664Z,100707.14
2023-04-16T14:32:30.970Z,100706.94
2023-04-16T14:34:59.285Z,100704.98
2023-04-16T14:37:27.877Z,100713.70
2023-04-16T14:39:56.678Z,100710.69
2023-04-16T14:42:25.143Z,100712.77
2023-04-16T14:44:53.554Z,100717.16
2023-04-16T14:47:21.987Z,100716.13
2023-04-16T14:49:50.412Z,100719.44
2023-04-16T14:52:19.124Z,100716.46
2023-04-16T14:54:48.204Z,100715.94
2023-04-16T14:57:17.868Z,100717.36
2023-04-16T14:59:46.144Z,100720.86
2023-04-16T15:02:15.372Z,100721.88
2023-04-16T15:04:43.854Z,100722.04
2023-04-16T15:07:12.225Z,100724.31
2023-04-16T15:09:40.591Z,100726.59
2023-04-16T15:12:09.403Z,100730.41
2023-04-16T15:14:37.788Z,100734.40
2023-04-16T15:17:06.284Z,100739.30
2023-04-16T15:19:34.594Z,100734.55
2023-04-16T15:22:02.876Z,100742.73
2023-04-16T15:24:31.241Z,100740.97
2023-04-16T15:26:59.665Z,100740.44
2023-04-16T15:29:28.464Z,100743.91
2023-04-16T15:31:56.833Z,100748.94
2023-04-16T15:34:26.734Z,100745.78
2023-04-16T15:36:55.047Z,100745.27
2023-04-16T15:39:23.365Z,100745.82
2023-04-16T15:44:23.371Z,100750.34
2023-04-16T15:46:51.640Z,100752.80
2023-04-16T15:49:19.925Z,100756.11
2023-04-16T15:51:48.367Z,100758.04
2023-04-16T15:54:18.710Z,100764.52
2023-04-16T15:56:47.392Z,100761.41
2023-04-16T15:59:16.279Z,100769.52
2023-04-16T16:01:44.513Z,100766.05
2023-04-16T16:04:12.904Z,100767.84
2023-04-16T16:06:41.953Z,100770.14
2023-04-16T16:09:11.142Z,100769.61
2023-04-16T16:11:39.961Z,100769.10
2023-04-16T16:14:08.380Z,100769.27
2023-04-16T16:16:36.861Z,100772.10
2023-04-16T16:19:05.640Z,100776.33
2023-04-16T16:21:33.976Z,100776.01
2023-04-16T16:24:02.552Z,100779.36
2023-04-16T16:26:30.956Z,100782.52
2023-04-16T16:28:59.276Z,100783.58
2023-04-16T16:31:27.626Z,100787.46
2023-04-16T16:33:56.013Z,100790.09
2023-04-16T16:36:24.589Z,100789.08
2023-04-16T16:38:52.979Z,100788.02
2023-04-16T16:41:21.207Z,100790.86
2023-04-16T16:43:50.466Z,100797.52
2023-04-16T16:46:18.771Z,100795.40
2023-04-16T16:48:47.036Z,100797.66
2023-04-16T16:51:19.009Z,100797.84
2023-04-16T16:53:47.593Z,100799.09
2023-04-16T16:56:16.146Z,100797.88
2023-04-16T16:58:44.481Z,100799.83
2023-04-16T17:01:12.809Z,100798.09
2023-04-16T17:03:41.258Z,100800.05
2023-04-16T17:06:10.251Z,100804.26
2023-04-16T17:08:38.513Z,100801.65
2023-04-16T17:11:06.729Z,100803.93
2023-04-16T17:13:35.714Z,100804.96
2023-04-16T17:16:04.224Z,100804.29
2023-04-16T17:18:32.512Z,100807.29
2023-04-16T17:21:01.049Z,100809.56
2023-04-16T17:23:29.483Z,100813.77
2023-04-16T17:25:59.720Z,100813.42
2023-04-16T17:28:28.027Z,100813.37
2023-04-16T17:30:57.176Z,100815.74
2023-04-16T17:33:25.526Z,100819.33
2023-04-16T17:35:53.844Z,100820.46
2023-04-16T17:38:22.680Z,100825.09
2023-04-16T17:40:50.986Z,100828.52
2023-04-16T17:43:19.261Z,100832.11
2023-04-16T17:45:47.467Z,100829.16
2023-04-16T17:48:16.016Z,100836.05
2023-04-16T17:50:44.363Z,100837.88
2023-04-16T17:53:12.714Z,100842.16
2023-04-16T17:55:42.856Z,100842.60
2023-04-16T17:58:11.349Z,100841.30
2023-04-16T18:00:40.191Z,100843.72
2023-04-16T18:03:10.085Z,100848.59
2023-04-16T18:05:38.523Z,100849.56
2023-04-16T18:08:06.774Z,100854.22
2023-04-16T18:10:35.057Z,100857.45
2023-04-16T18:13:03.365Z,100857.22
2023-04-16T18:15:31.688Z,100859.24
2023-04-16T18:18:00.146Z,100859.34
2023-04-16T18:20:28.574Z,100866.23
2023-04-16T18:22:56.941Z,100865.50
2023-04-16T18:25:33.567Z,100868.08
2023-04-16T18:28:04.077Z,100869.88
2023-04-16T18:30:32.741Z,100872.40
2023-04-16T18:33:33.597Z,100880.85
2023-04-16T18:35:50.033Z,100884.25
2023-04-16T18:38:18.334Z,100893.95
2023-04-16T18:40:47.178Z,100895.25
2023-04-16T18:43:16.072Z,100900.70
2023-04-16T18:45:44.332Z,100903.50
2023-04-16T18:48:12.547Z,100907.38
2023-04-16T18:50:41.207Z,100913.02
2023-04-16T18:53:17.413Z,100914.14
2023-04-16T18:55:45.882Z,100918.34
2023-04-16T18:58:14.216Z,100920.08
2023-04-16T19:00:42.648Z,100920.45
2023-04-16T19:03:11.011Z,100920.52
2023-04-16T19:05:39.411Z,100922.71
2023-04-16T19:08:07.675Z,100925.50
2023-04-16T19:10:36.183Z,100923.92
2023-04-16T19:13:04.557Z,100925.12
2023-04-16T19:15:34.404Z,100924.65
2023-04-16T19:18:03.780Z,100926.06
2023-04-16T19:20:38.421Z,100926.14
2023-04-16T19:23:09.188Z,100928.41
2023-04-16T19:25:37.641Z,100930.00
2023-04-16T19:28:06.346Z,100926.66
2023-04-16T19:30:34.871Z,100930.73
2023-04-16T19:33:03.201Z,100931.10
2023-04-16T19:35:37.805Z,100934.16
2023-04-16T19:38:09.560Z,100933.60
2023-04-16T19:41:05.950Z,100937.20
2023-04-16T19:43:37.261Z,100939.65
2023-04-16T19:46:08.303Z,100935.33
2023-04-16T19:48:36.923Z,100940.76
2023-04-16T19:51:05.758Z,100938.16
2023-04-16T19:53:34.869Z,100943.40
2023-04-16T19:56:05.955Z,100947.92
2023-04-16T19:58:34.715Z,100946.75
2023-04-16T20:01:09.020Z,100943.82
2023-04-16T20:03:38.674Z,100945.27
2023-04-16T20:06:08.066Z,100949.33
2023-04-16T20:08:36.461Z,100947.23
2023-04-16T20:11:04.833Z,100944.79
2023-04-16T20:13:33.385Z,100949.52
2023-04-16T20:16:01.792Z,100949.13
2023-04-16T20:18:46.274Z,100950.10
2023-04-16T20:21:14.896Z,100949.11
2023-04-16T20:23:43.152Z,100945.81
2023-04-16T20:26:15.942Z,100946.73
2023-04-16T20:28:46.898Z,100946.09
2023-04-16T20:31:15.426Z,100949.83
2023-04-16T20:33:43.713Z,100950.29
2023-04-16T20:36:12.211Z,100951.36
2023-04-16T20:38:42.653Z,100948.73
2023-04-16T20:41:12.239Z,100949.91
2023-04-16T20:43:42.354Z,100952.29
2023-04-16T20:46:11.953Z,100953.55
2023-04-16T20:48:40.446Z,100952.76
2023-04-16T20:51:12.394Z,100957.33
2023-04-16T20:53:40.921Z,100961.77
2023-04-16T20:56:09.359Z,100961.86
2023-04-16T20:58:37.807Z,100960.88
2023-04-16T21:01:06.405Z,100965.34
2023-04-16T21:03:35.232Z,100961.42
2023-04-16T21:06:04.060Z,100965.19
2023-04-16T21:08:32.372Z,100965.71
2023-04-16T21:11:00.765Z,100968.35
2023-04-16T21:13:29.179Z,100968.54
2023-04-16T21:15:57.484Z,100972.52
2023-04-16T21:18:26.201Z,100971.43
2023-04-16T21:20:54.497Z,100973.53
2023-04-16T21:23:22.829Z,100978.06
2023-04-16T21:25:51.337Z,100975.10
2023-04-16T21:28:19.673Z,100979.30
2023-04-16T21:30:52.244Z,100977.67
2023-04-16T21:33:20.568Z,100978.21
2023-04-16T21:35:53.702Z,100982.23
2023-04-16T21:38:22.220Z,100983.44
2023-04-16T21:40:54.046Z,100982.24
2023-04-16T21:43:30.695Z,100987.60
2023-04-16T21:45:59.770Z,100986.92
2023-04-16T21:48:28.689Z,100988.46
2023-04-16T21:51:06.884Z,100987.95
2023-04-16T21:54:31.494Z,100985.39
2023-04-16T21:57:12.657Z,100985.13
2023-04-16T21:59:55.952Z,100984.20
2023-04-16T22:02:34.526Z,100984.91
2023-04-16T22:05:27.242Z,100985.23
2023-04-16T22:08:24.056Z,100987.31
2023-04-16T22:11:03.292Z,100992.86
2023-04-16T22:13:52.921Z,100991.01
2023-04-16T22:16:22.522Z,100991.06
2023-04-16T22:18:51.444Z,100992.02
2023-04-16T22:21:19.778Z,100996.10
2023-04-16T22:23:48.279Z,100990.84
2023-04-16T22:26:16.737Z,100990.11
2023-04-16T22:28:48.096Z,100997.91
2023-04-16T22:31:16.448Z,100995.79
2023-04-16T22:33:44.780Z,100994.77
2023-04-16T22:36:13.174Z,100996.15
2023-04-16T22:38:41.634Z,100992.86
2023-04-16T22:41:09.802Z,100993.77
2023-04-16T22:43:38.193Z,100996.92
2023-04-16T22:46:07.348Z,101000.16
2023-04-16T22:48:38.332Z,100997.98
2023-04-16T22:51:08.986Z,100993.67
2023-04-16T22:53:37.249Z,100996.02
2023-04-16T22:56:06.314Z,100997.06
2023-04-16T22:58:34.730Z,100993.47
2023-04-16T23:01:03.336Z,100995.13
2023-04-16T23:03:32.150Z,100994.79
2023-04-16T23:06:00.562Z,100993.27
2023-04-16T23:08:28.749Z,100991.31
2023-04-16T23:10:57.495Z,100989.32
2023-04-16T23:13:25.876Z,100990.38
2023-04-16T23:15:54.164Z,100989.71
2023-04-16T23:18:22.421Z,100989.98
2023-04-16T23:20:52.838Z,100995.08
2023-04-16T23:23:21.260Z,100990.96
2023-04-16T23:25:53.070Z,100989.43
2023-04-16T23:28:22.157Z,100988.89
2023-04-16T23:30:53.496Z,100992.14
2023-04-16T23:33:22.207Z,101000.64
2023-04-16T23:35:50.428Z,101002.34
2023-04-16T23:38:18.743Z,101002.03
2023-04-16T23:40:47.036Z,101003.04
2023-04-16T23:43:15.575Z,101005.46
2023-04-16T23:45:43.840Z,101005.42
2023-04-16T23:48:12.290Z,101004.34
2023-04-16T23:50:40.474Z,101003.46
2023-04-16T23:53:08.701Z,101004.41
2023-04-16T23:55:36.969Z,101002.58
2023-04-16T23:58:05.443Z,101001.13
